sensor_id;sensor_type;location;lat;lon;timestamp;P1;durP1;ratioP1;P2;durP2;ratioP2
10412;SDS011;5252;42.602;23.386;2022-07-11T00:00:46;2.25;;;1.13;;
10412;SDS011;5252;42.602;23.386;2022-07-11T00:03:14;2.45;;;1.38;;
10412;SDS011;5252;42.602;23.386;2022-07-11T00:05:40;2.38;;;1.30;;
10412;SDS011;5252;42.602;23.386;2022-07-11T00:08:07;1.30;;;1.20;;
10412;SDS011;5252;42.602;23.386;2022-07-11T00:10:33;2.80;;;1.30;;
10412;SDS011;5252;42.602;23.386;2022-07-11T00:13:00;2.00;;;1.50;;
10412;SDS011;5252;42.602;23.386;2022-07-11T00:15:26;2.22;;;1.20;;
10412;SDS011;5252;42.602;23.386;2022-07-11T00:17:53;2.20;;;1.02;;
10412;SDS011;5252;42.602;23.386;2022-07-11T00:20:21;1.20;;;1.10;;
10412;SDS011;5252;42.602;23.386;2022-07-11T00:22:47;1.52;;;1.30;;
10412;SDS011;5252;42.602;23.386;2022-07-11T00:25:14;1.40;;;1.27;;
10412;SDS011;5252;42.602;23.386;2022-07-11T00:27:41;1.73;;;1.50;;
10412;SDS011;5252;42.602;23.386;2022-07-11T00:30:08;1.67;;;1.30;;
10412;SDS011;5252;42.602;23.386;2022-07-11T00:32:35;1.38;;;1.20;;
10412;SDS011;5252;42.602;23.386;2022-07-11T00:35:02;1.92;;;1.50;;
10412;SDS011;5252;42.602;23.386;2022-07-11T00:37:30;2.08;;;1.25;;
10412;SDS011;5252;42.602;23.386;2022-07-11T00:39:57;2.03;;;1.20;;
10412;SDS011;5252;42.602;23.386;2022-07-11T00:42:24;1.80;;;1.40;;
10412;SDS011;5252;42.602;23.386;2022-07-11T00:44:51;3.58;;;1.45;;
10412;SDS011;5252;42.602;23.386;2022-07-11T00:47:17;2.55;;;1.20;;
10412;SDS011;5252;42.602;23.386;2022-07-11T00:49:44;3.17;;;1.50;;
10412;SDS011;5252;42.602;23.386;2022-07-11T00:52:10;1.35;;;1.25;;
10412;SDS011;5252;42.602;23.386;2022-07-11T00:54:38;2.65;;;1.70;;
10412;SDS011;5252;42.602;23.386;2022-07-11T00:57:05;2.60;;;1.70;;
10412;SDS011;5252;42.602;23.386;2022-07-11T00:59:32;1.45;;;1.35;;
10412;SDS011;5252;42.602;23.386;2022-07-11T01:01:58;3.70;;;1.50;;
10412;SDS011;5252;42.602;23.386;2022-07-11T01:04:25;2.55;;;1.38;;
10412;SDS011;5252;42.602;23.386;2022-07-11T01:06:52;2.38;;;1.30;;
10412;SDS011;5252;42.602;23.386;2022-07-11T01:09:19;1.95;;;1.50;;
10412;SDS011;5252;42.602;23.386;2022-07-11T01:11:47;1.58;;;1.30;;
10412;SDS011;5252;42.602;23.386;2022-07-11T01:14:13;4.07;;;1.40;;
10412;SDS011;5252;42.602;23.386;2022-07-11T01:16:40;1.60;;;1.50;;
10412;SDS011;5252;42.602;23.386;2022-07-11T01:19:06;1.80;;;1.30;;
10412;SDS011;5252;42.602;23.386;2022-07-11T01:21:36;1.55;;;1.45;;
10412;SDS011;5252;42.602;23.386;2022-07-11T01:24:06;2.80;;;1.50;;
10412;SDS011;5252;42.602;23.386;2022-07-11T01:26:33;1.67;;;1.42;;
10412;SDS011;5252;42.602;23.386;2022-07-11T01:29:06;1.55;;;1.10;;
10412;SDS011;5252;42.602;23.386;2022-07-11T01:31:33;2.72;;;1.38;;
10412;SDS011;5252;42.602;23.386;2022-07-11T01:34:00;1.65;;;1.40;;
10412;SDS011;5252;42.602;23.386;2022-07-11T01:36:27;1.77;;;1.25;;
10412;SDS011;5252;42.602;23.386;2022-07-11T01:38:53;1.20;;;1.10;;
10412;SDS011;5252;42.602;23.386;2022-07-11T01:41:21;1.65;;;1.08;;
10412;SDS011;5252;42.602;23.386;2022-07-11T01:43:48;2.45;;;1.30;;
10412;SDS011;5252;42.602;23.386;2022-07-11T01:46:14;4.07;;;1.10;;
10412;SDS011;5252;42.602;23.386;2022-07-11T01:48:41;1.20;;;1.10;;
10412;SDS011;5252;42.602;23.386;2022-07-11T01:51:08;1.27;;;1.17;;
10412;SDS011;5252;42.602;23.386;2022-07-11T01:53:35;1.08;;;1.05;;
10412;SDS011;5252;42.602;23.386;2022-07-11T01:56:01;1.48;;;1.38;;
10412;SDS011;5252;42.602;23.386;2022-07-11T01:58:29;1.77;;;1.00;;
10412;SDS011;5252;42.602;23.386;2022-07-11T02:00:56;1.67;;;1.17;;
10412;SDS011;5252;42.602;23.386;2022-07-11T02:03:23;1.65;;;1.27;;
10412;SDS011;5252;42.602;23.386;2022-07-11T02:05:50;2.67;;;1.50;;
10412;SDS011;5252;42.602;23.386;2022-07-11T02:08:16;1.48;;;1.20;;
10412;SDS011;5252;42.602;23.386;2022-07-11T02:10:44;1.50;;;1.15;;
10412;SDS011;5252;42.602;23.386;2022-07-11T02:13:11;1.85;;;1.00;;
10412;SDS011;5252;42.602;23.386;2022-07-11T02:15:41;3.05;;;1.30;;
10412;SDS011;5252;42.602;23.386;2022-07-11T02:18:08;1.52;;;1.25;;
10412;SDS011;5252;42.602;23.386;2022-07-11T02:20:37;2.65;;;1.45;;
10412;SDS011;5252;42.602;23.386;2022-07-11T02:23:04;1.10;;;1.00;;
10412;SDS011;5252;42.602;23.386;2022-07-11T02:25:31;1.77;;;1.38;;
10412;SDS011;5252;42.602;23.386;2022-07-11T02:28:00;2.42;;;1.30;;
10412;SDS011;5252;42.602;23.386;2022-07-11T02:30:27;1.98;;;1.33;;
10412;SDS011;5252;42.602;23.386;2022-07-11T02:32:55;2.08;;;1.30;;
10412;SDS011;5252;42.602;23.386;2022-07-11T02:35:21;2.33;;;1.30;;
10412;SDS011;5252;42.602;23.386;2022-07-11T02:37:48;1.63;;;1.25;;
10412;SDS011;5252;42.602;23.386;2022-07-11T02:40:15;1.52;;;1.02;;
10412;SDS011;5252;42.602;23.386;2022-07-11T02:42:41;2.20;;;1.33;;
10412;SDS011;5252;42.602;23.386;2022-07-11T02:45:08;2.72;;;1.30;;
10412;SDS011;5252;42.602;23.386;2022-07-11T02:47:35;2.65;;;1.45;;
10412;SDS011;5252;42.602;23.386;2022-07-11T02:50:05;2.38;;;1.30;;
10412;SDS011;5252;42.602;23.386;2022-07-11T02:52:32;2.38;;;1.33;;
10412;SDS011;5252;42.602;23.386;2022-07-11T02:54:59;1.20;;;1.10;;
10412;SDS011;5252;42.602;23.386;2022-07-11T02:57:26;1.70;;;1.30;;
10412;SDS011;5252;42.602;23.386;2022-07-11T02:59:52;2.17;;;1.20;;
10412;SDS011;5252;42.602;23.386;2022-07-11T03:02:19;2.40;;;1.15;;
10412;SDS011;5252;42.602;23.386;2022-07-11T03:04:46;1.67;;;1.27;;
10412;SDS011;5252;42.602;23.386;2022-07-11T03:07:14;1.58;;;1.10;;
10412;SDS011;5252;42.602;23.386;2022-07-11T03:09:41;2.20;;;1.40;;
10412;SDS011;5252;42.602;23.386;2022-07-11T03:12:08;2.58;;;1.30;;
10412;SDS011;5252;42.602;23.386;2022-07-11T03:14:34;1.50;;;1.40;;
10412;SDS011;5252;42.602;23.386;2022-07-11T03:17:01;2.97;;;1.50;;
10412;SDS011;5252;42.602;23.386;2022-07-11T03:19:27;1.45;;;1.20;;
10412;SDS011;5252;42.602;23.386;2022-07-11T03:21:54;2.08;;;1.20;;
10412;SDS011;5252;42.602;23.386;2022-07-11T03:24:22;1.20;;;1.02;;
10412;SDS011;5252;42.602;23.386;2022-07-11T03:26:48;3.03;;;1.35;;
10412;SDS011;5252;42.602;23.386;2022-07-11T03:29:15;2.10;;;1.20;;
10412;SDS011;5252;42.602;23.386;2022-07-11T03:31:42;1.65;;;1.20;;
10412;SDS011;5252;42.602;23.386;2022-07-11T03:34:09;2.53;;;1.40;;
10412;SDS011;5252;42.602;23.386;2022-07-11T03:36:36;1.40;;;1.20;;
10412;SDS011;5252;42.602;23.386;2022-07-11T03:39:02;1.67;;;1.10;;
10412;SDS011;5252;42.602;23.386;2022-07-11T03:41:30;1.42;;;1.33;;
10412;SDS011;5252;42.602;23.386;2022-07-11T03:43:57;4.03;;;1.15;;
10412;SDS011;5252;42.602;23.386;2022-07-11T03:46:23;1.70;;;1.25;;
10412;SDS011;5252;42.602;23.386;2022-07-11T03:48:50;1.25;;;1.15;;
10412;SDS011;5252;42.602;23.386;2022-07-11T03:51:16;4.47;;;1.20;;
10412;SDS011;5252;42.602;23.386;2022-07-11T03:53:43;1.30;;;1.20;;
10412;SDS011;5252;42.602;23.386;2022-07-11T03:56:10;1.20;;;1.10;;
10412;SDS011;5252;42.602;23.386;2022-07-11T03:58:38;2.08;;;1.20;;
10412;SDS011;5252;42.602;23.386;2022-07-11T04:01:05;2.72;;;1.33;;
10412;SDS011;5252;42.602;23.386;2022-07-11T04:03:31;1.60;;;1.50;;
10412;SDS011;5252;42.602;23.386;2022-07-11T04:05:58;2.63;;;1.40;;
10412;SDS011;5252;42.602;23.386;2022-07-11T04:08:24;2.03;;;1.40;;
10412;SDS011;5252;42.602;23.386;2022-07-11T04:10:51;2.30;;;1.40;;
10412;SDS011;5252;42.602;23.386;2022-07-11T04:13:18;1.40;;;1.30;;
10412;SDS011;5252;42.602;23.386;2022-07-11T04:15:46;1.30;;;1.20;;
10412;SDS011;5252;42.602;23.386;2022-07-11T04:18:12;2.95;;;1.42;;
10412;SDS011;5252;42.602;23.386;2022-07-11T04:20:39;3.08;;;1.60;;
10412;SDS011;5252;42.602;23.386;2022-07-11T04:23:06;1.60;;;1.50;;
10412;SDS011;5252;42.602;23.386;2022-07-11T04:25:32;1.77;;;1.60;;
10412;SDS011;5252;42.602;23.386;2022-07-11T04:27:59;1.73;;;1.63;;
10412;SDS011;5252;42.602;23.386;2022-07-11T04:30:25;2.95;;;1.65;;
10412;SDS011;5252;42.602;23.386;2022-07-11T04:32:54;2.05;;;1.42;;
10412;SDS011;5252;42.602;23.386;2022-07-11T04:35:21;2.03;;;1.67;;
10412;SDS011;5252;42.602;23.386;2022-07-11T04:37:48;1.50;;;1.40;;
10412;SDS011;5252;42.602;23.386;2022-07-11T04:40:15;2.17;;;1.65;;
10412;SDS011;5252;42.602;23.386;2022-07-11T04:42:42;2.08;;;1.50;;
10412;SDS011;5252;42.602;23.386;2022-07-11T04:45:09;2.58;;;1.50;;
10412;SDS011;5252;42.602;23.386;2022-07-11T04:47:36;2.33;;;1.50;;
10412;SDS011;5252;42.602;23.386;2022-07-11T04:50:04;1.63;;;1.48;;
10412;SDS011;5252;42.602;23.386;2022-07-11T04:52:31;2.60;;;1.40;;
10412;SDS011;5252;42.602;23.386;2022-07-11T04:54:57;2.50;;;1.50;;
10412;SDS011;5252;42.602;23.386;2022-07-11T04:57:24;2.08;;;1.33;;
10412;SDS011;5252;42.602;23.386;2022-07-11T04:59:51;1.40;;;1.30;;
10412;SDS011;5252;42.602;23.386;2022-07-11T05:02:18;1.77;;;1.60;;
10412;SDS011;5252;42.602;23.386;2022-07-11T05:04:44;2.83;;;1.50;;
10412;SDS011;5252;42.602;23.386;2022-07-11T05:07:12;2.25;;;1.65;;
10412;SDS011;5252;42.602;23.386;2022-07-11T05:09:40;4.30;;;1.60;;
10412;SDS011;5252;42.602;23.386;2022-07-11T05:12:06;2.97;;;1.52;;
10412;SDS011;5252;42.602;23.386;2022-07-11T05:14:34;1.73;;;1.38;;
10412;SDS011;5252;42.602;23.386;2022-07-11T05:17:00;2.97;;;1.60;;
10412;SDS011;5252;42.602;23.386;2022-07-11T05:19:27;3.03;;;1.60;;
10412;SDS011;5252;42.602;23.386;2022-07-11T05:21:53;3.47;;;1.67;;
10412;SDS011;5252;42.602;23.386;2022-07-11T05:24:21;1.80;;;1.50;;
10412;SDS011;5252;42.602;23.386;2022-07-11T05:26:48;2.47;;;1.50;;
10412;SDS011;5252;42.602;23.386;2022-07-11T05:29:14;3.05;;;1.50;;
10412;SDS011;5252;42.602;23.386;2022-07-11T05:31:41;4.30;;;1.40;;
10412;SDS011;5252;42.602;23.386;2022-07-11T05:34:08;2.25;;;1.30;;
10412;SDS011;5252;42.602;23.386;2022-07-11T05:36:34;2.33;;;1.38;;
10412;SDS011;5252;42.602;23.386;2022-07-11T05:39:01;2.90;;;1.50;;
10412;SDS011;5252;42.602;23.386;2022-07-11T05:41:29;3.85;;;1.50;;
10412;SDS011;5252;42.602;23.386;2022-07-11T05:43:55;1.45;;;1.20;;
10412;SDS011;5252;42.602;23.386;2022-07-11T05:46:22;1.25;;;1.10;;
10412;SDS011;5252;42.602;23.386;2022-07-11T05:48:48;2.42;;;1.40;;
10412;SDS011;5252;42.602;23.386;2022-07-11T05:51:15;3.25;;;1.25;;
10412;SDS011;5252;42.602;23.386;2022-07-11T05:53:44;2.08;;;1.10;;
10412;SDS011;5252;42.602;23.386;2022-07-11T05:56:10;2.40;;;1.25;;
10412;SDS011;5252;42.602;23.386;2022-07-11T05:58:38;3.03;;;1.20;;
10412;SDS011;5252;42.602;23.386;2022-07-11T06:01:05;1.70;;;1.15;;
10412;SDS011;5252;42.602;23.386;2022-07-11T06:03:33;3.97;;;1.40;;
10412;SDS011;5252;42.602;23.386;2022-07-11T06:06:00;2.78;;;1.08;;
10412;SDS011;5252;42.602;23.386;2022-07-11T06:08:29;1.77;;;1.00;;
10412;SDS011;5252;42.602;23.386;2022-07-11T06:11:08;2.22;;;1.13;;
10412;SDS011;5252;42.602;23.386;2022-07-11T06:13:36;3.35;;;1.10;;
10412;SDS011;5252;42.602;23.386;2022-07-11T06:16:04;0.98;;;0.88;;
10412;SDS011;5252;42.602;23.386;2022-07-11T06:18:32;0.88;;;0.80;;
10412;SDS011;5252;42.602;23.386;2022-07-11T06:20:58;1.10;;;0.90;;
10412;SDS011;5252;42.602;23.386;2022-07-11T06:23:25;3.55;;;1.20;;
10412;SDS011;5252;42.602;23.386;2022-07-11T06:25:52;1.67;;;1.10;;
10412;SDS011;5252;42.602;23.386;2022-07-11T06:28:19;1.48;;;1.10;;
10412;SDS011;5252;42.602;23.386;2022-07-11T06:30:45;1.70;;;1.00;;
10412;SDS011;5252;42.602;23.386;2022-07-11T06:33:13;1.48;;;0.95;;
10412;SDS011;5252;42.602;23.386;2022-07-11T06:35:41;1.63;;;1.08;;
10412;SDS011;5252;42.602;23.386;2022-07-11T06:38:08;1.52;;;0.95;;
10412;SDS011;5252;42.602;23.386;2022-07-11T06:40:34;2.03;;;1.08;;
10412;SDS011;5252;42.602;23.386;2022-07-11T06:43:01;1.05;;;0.80;;
10412;SDS011;5252;42.602;23.386;2022-07-11T06:45:27;2.28;;;0.93;;
10412;SDS011;5252;42.602;23.386;2022-07-11T06:47:54;2.53;;;0.88;;
10412;SDS011;5252;42.602;23.386;2022-07-11T06:50:22;3.03;;;0.80;;
10412;SDS011;5252;42.602;23.386;2022-07-11T06:52:49;3.60;;;1.00;;
10412;SDS011;5252;42.602;23.386;2022-07-11T06:55:15;3.22;;;1.05;;
10412;SDS011;5252;42.602;23.386;2022-07-11T06:57:42;2.53;;;0.90;;
10412;SDS011;5252;42.602;23.386;2022-07-11T07:00:08;1.45;;;0.70;;
10412;SDS011;5252;42.602;23.386;2022-07-11T07:02:36;1.55;;;0.73;;
10412;SDS011;5252;42.602;23.386;2022-07-11T07:05:03;2.08;;;0.70;;
10412;SDS011;5252;42.602;23.386;2022-07-11T07:07:32;1.10;;;0.68;;
10412;SDS011;5252;42.602;23.386;2022-07-11T07:09:58;0.80;;;0.70;;
10412;SDS011;5252;42.602;23.386;2022-07-11T07:12:25;0.93;;;0.63;;
10412;SDS011;5252;42.602;23.386;2022-07-11T07:14:51;1.38;;;0.80;;
10412;SDS011;5252;42.602;23.386;2022-07-11T07:17:18;2.53;;;0.60;;
10412;SDS011;5252;42.602;23.386;2022-07-11T07:19:45;0.75;;;0.60;;
10412;SDS011;5252;42.602;23.386;2022-07-11T07:22:11;2.63;;;0.68;;
10412;SDS011;5252;42.602;23.386;2022-07-11T07:24:42;1.77;;;0.60;;
10412;SDS011;5252;42.602;23.386;2022-07-11T07:27:09;1.20;;;0.70;;
10412;SDS011;5252;42.602;23.386;2022-07-11T07:29:35;1.02;;;0.70;;
10412;SDS011;5252;42.602;23.386;2022-07-11T07:32:03;1.85;;;0.80;;
10412;SDS011;5252;42.602;23.386;2022-07-11T07:34:30;1.77;;;0.80;;
10412;SDS011;5252;42.602;23.386;2022-07-11T07:36:57;1.65;;;0.70;;
10412;SDS011;5252;42.602;23.386;2022-07-11T07:39:24;3.17;;;0.70;;
10412;SDS011;5252;42.602;23.386;2022-07-11T07:41:52;1.45;;;0.88;;
10412;SDS011;5252;42.602;23.386;2022-07-11T07:44:18;2.15;;;0.82;;
10412;SDS011;5252;42.602;23.386;2022-07-11T07:46:45;2.55;;;0.90;;
10412;SDS011;5252;42.602;23.386;2022-07-11T07:49:12;2.58;;;1.08;;
10412;SDS011;5252;42.602;23.386;2022-07-11T07:51:38;3.05;;;1.30;;
10412;SDS011;5252;42.602;23.386;2022-07-11T07:54:05;3.05;;;0.80;;
10412;SDS011;5252;42.602;23.386;2022-07-11T07:56:32;1.23;;;0.93;;
10412;SDS011;5252;42.602;23.386;2022-07-11T07:59:00;3.17;;;0.90;;
10412;SDS011;5252;42.602;23.386;2022-07-11T08:01:26;4.50;;;1.17;;
10412;SDS011;5252;42.602;23.386;2022-07-11T08:04:01;1.60;;;0.90;;
10412;SDS011;5252;42.602;23.386;2022-07-11T08:06:27;2.83;;;1.20;;
10412;SDS011;5252;42.602;23.386;2022-07-11T08:08:54;3.63;;;1.00;;
10412;SDS011;5252;42.602;23.386;2022-07-11T08:11:20;2.50;;;0.90;;
10412;SDS011;5252;42.602;23.386;2022-07-11T08:13:47;2.63;;;0.88;;
10412;SDS011;5252;42.602;23.386;2022-07-11T08:16:16;2.20;;;1.00;;
10412;SDS011;5252;42.602;23.386;2022-07-11T08:18:43;1.30;;;0.90;;
10412;SDS011;5252;42.602;23.386;2022-07-11T08:21:09;2.03;;;0.90;;
10412;SDS011;5252;42.602;23.386;2022-07-11T08:23:36;2.35;;;0.85;;
10412;SDS011;5252;42.602;23.386;2022-07-11T08:26:02;2.65;;;0.98;;
10412;SDS011;5252;42.602;23.386;2022-07-11T08:28:29;1.73;;;1.00;;
10412;SDS011;5252;42.602;23.386;2022-07-11T08:30:56;3.33;;;1.10;;
10412;SDS011;5252;42.602;23.386;2022-07-11T08:33:24;2.10;;;0.80;;
10412;SDS011;5252;42.602;23.386;2022-07-11T08:35:50;2.70;;;1.00;;
10412;SDS011;5252;42.602;23.386;2022-07-11T08:38:17;1.38;;;0.90;;
10412;SDS011;5252;42.602;23.386;2022-07-11T08:40:44;2.60;;;0.65;;
10412;SDS011;5252;42.602;23.386;2022-07-11T08:43:12;1.10;;;0.68;;
10412;SDS011;5252;42.602;23.386;2022-07-11T08:45:39;2.92;;;0.82;;
10412;SDS011;5252;42.602;23.386;2022-07-11T08:48:05;2.40;;;0.80;;
10412;SDS011;5252;42.602;23.386;2022-07-11T08:50:35;2.35;;;0.77;;
10412;SDS011;5252;42.602;23.386;2022-07-11T08:53:02;2.30;;;0.80;;
10412;SDS011;5252;42.602;23.386;2022-07-11T08:55:29;1.80;;;1.00;;
10412;SDS011;5252;42.602;23.386;2022-07-11T08:57:55;1.45;;;0.55;;
10412;SDS011;5252;42.602;23.386;2022-07-11T09:00:23;2.05;;;0.90;;
10412;SDS011;5252;42.602;23.386;2022-07-11T09:02:50;1.20;;;0.80;;
10412;SDS011;5252;42.602;23.386;2022-07-11T09:05:18;1.20;;;0.80;;
10412;SDS011;5252;42.602;23.386;2022-07-11T09:07:47;2.42;;;0.80;;
10412;SDS011;5252;42.602;23.386;2022-07-11T09:10:14;1.23;;;0.82;;
10412;SDS011;5252;42.602;23.386;2022-07-11T09:15:30;1.55;;;0.80;;
10412;SDS011;5252;42.602;23.386;2022-07-11T09:17:57;2.33;;;0.90;;
10412;SDS011;5252;42.602;23.386;2022-07-11T09:20:23;3.33;;;0.88;;
10412;SDS011;5252;42.602;23.386;2022-07-11T09:22:51;2.95;;;0.90;;
10412;SDS011;5252;42.602;23.386;2022-07-11T09:25:41;2.75;;;0.93;;
10412;SDS011;5252;42.602;23.386;2022-07-11T09:28:07;1.02;;;0.63;;
10412;SDS011;5252;42.602;23.386;2022-07-11T09:30:35;2.75;;;0.63;;
10412;SDS011;5252;42.602;23.386;2022-07-11T09:33:05;3.85;;;0.70;;
10412;SDS011;5252;42.602;23.386;2022-07-11T09:35:32;2.05;;;0.70;;
10412;SDS011;5252;42.602;23.386;2022-07-11T09:38:03;1.85;;;0.70;;
10412;SDS011;5252;42.602;23.386;2022-07-11T09:40:30;1.23;;;0.73;;
10412;SDS011;5252;42.602;23.386;2022-07-11T09:42:57;3.67;;;0.80;;
10412;SDS011;5252;42.602;23.386;2022-07-11T09:45:25;1.52;;;0.70;;
10412;SDS011;5252;42.602;23.386;2022-07-11T09:47:52;1.25;;;0.80;;
10412;SDS011;5252;42.602;23.386;2022-07-11T09:50:19;1.35;;;0.70;;
10412;SDS011;5252;42.602;23.386;2022-07-11T09:52:59;5.47;;;1.00;;
10412;SDS011;5252;42.602;23.386;2022-07-11T09:55:27;5.72;;;0.80;;
10412;SDS011;5252;42.602;23.386;2022-07-11T09:57:54;2.28;;;0.95;;
10412;SDS011;5252;42.602;23.386;2022-07-11T10:00:20;3.20;;;0.80;;
10412;SDS011;5252;42.602;23.386;2022-07-11T10:02:47;2.35;;;0.70;;
10412;SDS011;5252;42.602;23.386;2022-07-11T10:05:14;1.33;;;0.73;;
10412;SDS011;5252;42.602;23.386;2022-07-11T10:07:41;1.17;;;0.70;;
10412;SDS011;5252;42.602;23.386;2022-07-11T10:10:08;2.17;;;0.75;;
10412;SDS011;5252;42.602;23.386;2022-07-11T10:12:36;1.48;;;0.80;;
10412;SDS011;5252;42.602;23.386;2022-07-11T10:15:03;1.65;;;0.60;;
10412;SDS011;5252;42.602;23.386;2022-07-11T10:17:33;0.90;;;0.70;;
10412;SDS011;5252;42.602;23.386;2022-07-11T10:20:04;0.68;;;0.50;;
10412;SDS011;5252;42.602;23.386;2022-07-11T10:22:37;2.58;;;0.90;;
10412;SDS011;5252;42.602;23.386;2022-07-11T10:25:07;1.10;;;0.80;;
10412;SDS011;5252;42.602;23.386;2022-07-11T10:27:41;2.17;;;0.68;;
10412;SDS011;5252;42.602;23.386;2022-07-11T10:30:13;2.13;;;0.70;;
10412;SDS011;5252;42.602;23.386;2022-07-11T10:35:22;0.82;;;0.70;;
10412;SDS011;5252;42.602;23.386;2022-07-11T10:37:50;1.50;;;0.90;;
10412;SDS011;5252;42.602;23.386;2022-07-11T10:43:00;1.20;;;0.77;;
10412;SDS011;5252;42.602;23.386;2022-07-11T10:45:26;0.73;;;0.70;;
10412;SDS011;5252;42.602;23.386;2022-07-11T10:47:53;0.88;;;0.80;;
10412;SDS011;5252;42.602;23.386;2022-07-11T10:50:25;1.98;;;0.90;;
10412;SDS011;5252;42.602;23.386;2022-07-11T10:52:55;1.33;;;0.50;;
10412;SDS011;5252;42.602;23.386;2022-07-11T10:55:27;0.95;;;0.70;;
10412;SDS011;5252;42.602;23.386;2022-07-11T10:58:01;1.95;;;0.70;;
10412;SDS011;5252;42.602;23.386;2022-07-11T11:00:29;1.98;;;0.80;;
10412;SDS011;5252;42.602;23.386;2022-07-11T11:03:00;0.93;;;0.80;;
10412;SDS011;5252;42.602;23.386;2022-07-11T11:05:44;1.13;;;0.65;;
10412;SDS011;5252;42.602;23.386;2022-07-11T11:08:39;1.90;;;0.80;;
10412;SDS011;5252;42.602;23.386;2022-07-11T11:11:06;1.10;;;0.80;;
10412;SDS011;5252;42.602;23.386;2022-07-11T11:13:34;0.82;;;0.60;;
10412;SDS011;5252;42.602;23.386;2022-07-11T11:16:01;0.70;;;0.70;;
10412;SDS011;5252;42.602;23.386;2022-07-11T11:18:41;1.50;;;0.70;;
10412;SDS011;5252;42.602;23.386;2022-07-11T11:21:14;3.47;;;0.70;;
10412;SDS011;5252;42.602;23.386;2022-07-11T11:23:42;1.13;;;0.70;;
10412;SDS011;5252;42.602;23.386;2022-07-11T11:26:09;1.20;;;0.77;;
10412;SDS011;5252;42.602;23.386;2022-07-11T11:28:37;2.08;;;0.90;;
10412;SDS011;5252;42.602;23.386;2022-07-11T11:31:05;1.17;;;0.80;;
10412;SDS011;5252;42.602;23.386;2022-07-11T11:33:33;0.95;;;0.70;;
10412;SDS011;5252;42.602;23.386;2022-07-11T11:36:00;1.17;;;0.80;;
10412;SDS011;5252;42.602;23.386;2022-07-11T11:38:27;0.95;;;0.70;;
10412;SDS011;5252;42.602;23.386;2022-07-11T11:40:54;1.27;;;0.73;;
10412;SDS011;5252;42.602;23.386;2022-07-11T11:43:20;3.50;;;0.70;;
10412;SDS011;5252;42.602;23.386;2022-07-11T11:45:49;1.75;;;0.80;;
10412;SDS011;5252;42.602;23.386;2022-07-11T11:48:25;1.67;;;0.90;;
10412;SDS011;5252;42.602;23.386;2022-07-11T11:50:52;1.30;;;0.80;;
10412;SDS011;5252;42.602;23.386;2022-07-11T11:53:19;0.82;;;0.60;;
10412;SDS011;5252;42.602;23.386;2022-07-11T11:55:45;0.63;;;0.50;;
10412;SDS011;5252;42.602;23.386;2022-07-11T11:58:13;1.10;;;0.68;;
10412;SDS011;5252;42.602;23.386;2022-07-11T12:00:39;1.85;;;0.70;;
10412;SDS011;5252;42.602;23.386;2022-07-11T12:03:07;5.25;;;0.88;;
10412;SDS011;5252;42.602;23.386;2022-07-11T12:05:34;3.40;;;0.75;;
10412;SDS011;5252;42.602;23.386;2022-07-11T12:08:00;0.75;;;0.60;;
10412;SDS011;5252;42.602;23.386;2022-07-11T12:10:27;2.13;;;0.75;;
10412;SDS011;5252;42.602;23.386;2022-07-11T12:12:54;1.25;;;0.80;;
10412;SDS011;5252;42.602;23.386;2022-07-11T12:15:22;1.15;;;0.75;;
10412;SDS011;5252;42.602;23.386;2022-07-11T12:17:51;1.05;;;0.70;;
10412;SDS011;5252;42.602;23.386;2022-07-11T12:20:33;1.50;;;0.85;;
10412;SDS011;5252;42.602;23.386;2022-07-11T12:23:03;2.17;;;0.90;;
10412;SDS011;5252;42.602;23.386;2022-07-11T12:25:29;1.20;;;0.70;;
10412;SDS011;5252;42.602;23.386;2022-07-11T12:27:56;1.35;;;0.82;;
10412;SDS011;5252;42.602;23.386;2022-07-11T12:30:23;1.33;;;0.80;;
10412;SDS011;5252;42.602;23.386;2022-07-11T12:33:05;2.63;;;0.75;;
10412;SDS011;5252;42.602;23.386;2022-07-11T12:35:34;0.90;;;0.70;;
10412;SDS011;5252;42.602;23.386;2022-07-11T12:38:01;0.70;;;0.70;;
10412;SDS011;5252;42.602;23.386;2022-07-11T12:40:27;1.15;;;0.90;;
10412;SDS011;5252;42.602;23.386;2022-07-11T12:42:54;1.27;;;0.57;;
10412;SDS011;5252;42.602;23.386;2022-07-11T12:45:21;1.08;;;0.65;;
10412;SDS011;5252;42.602;23.386;2022-07-11T12:47:47;4.05;;;0.80;;
10412;SDS011;5252;42.602;23.386;2022-07-11T12:50:14;1.55;;;0.60;;
10412;SDS011;5252;42.602;23.386;2022-07-11T12:52:44;0.73;;;0.70;;
10412;SDS011;5252;42.602;23.386;2022-07-11T12:55:18;1.58;;;0.73;;
10412;SDS011;5252;42.602;23.386;2022-07-11T12:57:59;2.10;;;1.05;;
10412;SDS011;5252;42.602;23.386;2022-07-11T13:00:26;1.90;;;0.90;;
10412;SDS011;5252;42.602;23.386;2022-07-11T13:02:52;0.93;;;0.63;;
10412;SDS011;5252;42.602;23.386;2022-07-11T13:05:19;1.38;;;0.77;;
10412;SDS011;5252;42.602;23.386;2022-07-11T13:07:47;2.13;;;1.00;;
10412;SDS011;5252;42.602;23.386;2022-07-11T13:10:31;2.17;;;0.73;;
10412;SDS011;5252;42.602;23.386;2022-07-11T13:13:11;2.50;;;0.80;;
10412;SDS011;5252;42.602;23.386;2022-07-11T13:15:37;0.60;;;0.60;;
10412;SDS011;5252;42.602;23.386;2022-07-11T13:18:04;1.33;;;0.80;;
10412;SDS011;5252;42.602;23.386;2022-07-11T13:20:35;0.88;;;0.80;;
10412;SDS011;5252;42.602;23.386;2022-07-11T13:23:04;2.63;;;0.88;;
10412;SDS011;5252;42.602;23.386;2022-07-11T13:25:31;3.17;;;0.90;;
10412;SDS011;5252;42.602;23.386;2022-07-11T13:27:58;0.88;;;0.70;;
10412;SDS011;5252;42.602;23.386;2022-07-11T13:30:24;0.95;;;0.70;;
10412;SDS011;5252;42.602;23.386;2022-07-11T13:32:55;2.05;;;0.90;;
10412;SDS011;5252;42.602;23.386;2022-07-11T13:35:21;1.02;;;0.73;;
10412;SDS011;5252;42.602;23.386;2022-07-11T13:37:48;4.00;;;0.70;;
10412;SDS011;5252;42.602;23.386;2022-07-11T13:40:16;1.40;;;0.70;;
10412;SDS011;5252;42.602;23.386;2022-07-11T13:42:43;2.20;;;0.70;;
10412;SDS011;5252;42.602;23.386;2022-07-11T13:45:11;1.75;;;1.05;;
10412;SDS011;5252;42.602;23.386;2022-07-11T13:47:38;1.52;;;0.80;;
10412;SDS011;5252;42.602;23.386;2022-07-11T13:50:05;2.55;;;0.80;;
10412;SDS011;5252;42.602;23.386;2022-07-11T13:52:32;0.82;;;0.70;;
10412;SDS011;5252;42.602;23.386;2022-07-11T13:54:59;1.75;;;0.70;;
10412;SDS011;5252;42.602;23.386;2022-07-11T13:57:27;1.02;;;0.70;;
10412;SDS011;5252;42.602;23.386;2022-07-11T13:59:55;0.98;;;0.73;;
10412;SDS011;5252;42.602;23.386;2022-07-11T14:02:22;1.48;;;0.80;;
10412;SDS011;5252;42.602;23.386;2022-07-11T14:04:49;1.55;;;0.90;;
10412;SDS011;5252;42.602;23.386;2022-07-11T14:07:16;0.85;;;0.82;;
10412;SDS011;5252;42.602;23.386;2022-07-11T14:09:43;0.70;;;0.60;;
10412;SDS011;5252;42.602;23.386;2022-07-11T14:12:09;1.52;;;0.60;;
10412;SDS011;5252;42.602;23.386;2022-07-11T14:14:38;2.40;;;0.90;;
10412;SDS011;5252;42.602;23.386;2022-07-11T14:17:05;1.83;;;0.80;;
10412;SDS011;5252;42.602;23.386;2022-07-11T14:19:32;0.88;;;0.75;;
10412;SDS011;5252;42.602;23.386;2022-07-11T14:22:02;1.75;;;0.70;;
10412;SDS011;5252;42.602;23.386;2022-07-11T14:24:30;1.00;;;0.80;;
10412;SDS011;5252;42.602;23.386;2022-07-11T14:26:56;1.20;;;0.70;;
10412;SDS011;5252;42.602;23.386;2022-07-11T14:29:23;3.30;;;0.90;;
10412;SDS011;5252;42.602;23.386;2022-07-11T14:31:52;1.13;;;0.80;;
10412;SDS011;5252;42.602;23.386;2022-07-11T14:34:19;1.10;;;0.77;;
10412;SDS011;5252;42.602;23.386;2022-07-11T14:36:45;1.38;;;0.75;;
10412;SDS011;5252;42.602;23.386;2022-07-11T14:39:12;0.75;;;0.60;;
10412;SDS011;5252;42.602;23.386;2022-07-11T14:41:39;1.45;;;0.90;;
10412;SDS011;5252;42.602;23.386;2022-07-11T14:44:06;1.80;;;0.75;;
10412;SDS011;5252;42.602;23.386;2022-07-11T14:46:32;1.77;;;0.70;;
10412;SDS011;5252;42.602;23.386;2022-07-11T14:49:00;0.70;;;0.60;;
10412;SDS011;5252;42.602;23.386;2022-07-11T14:51:27;2.13;;;0.75;;
10412;SDS011;5252;42.602;23.386;2022-07-11T14:53:54;1.23;;;0.70;;
10412;SDS011;5252;42.602;23.386;2022-07-11T14:56:21;1.10;;;0.90;;
10412;SDS011;5252;42.602;23.386;2022-07-11T14:58:48;1.27;;;0.68;;